Time;durP1;ratioP1;P1;durP2;ratioP2;P2;SDS_P1;SDS_P2;PMS_P1;PMS_P2;Temp;Humidity;BMP_temperature;BMP_pressure;BME280_temperature;BME280_humidity;BME280_pressure;Samples;Min_cycle;Max_cycle;Signal;HPM_P1;HPM_P2
2023/04/21 00:01:49;;;;;;;6.60;4.13;;;;;;;10.17;71.55;94217.47;5138224;27;20204;-72
2023/04/21 00:04:16;;;;;;;7.20;4.13;;;;;;;10.19;71.58;94223.38;5137430;27;20743;-71
2023/04/21 00:06:44;;;;;;;6.85;3.92;;;;;;;10.20;71.48;94222.25;5130656;27;20265;-71
2023/04/21 00:09:11;;;;;;;9.05;4.50;;;;;;;10.17;71.45;94206.66;5144998;27;20253;-71
2023/04/21 00:11:39;;;;;;;5.75;4.60;;;;;;;10.15;71.65;94208.91;5138453;27;20277;-71
2023/04/21 00:14:06;;;;;;;4.90;3.53;;;;;;;10.07;72.01;94213.28;5150036;27;20272;-71
2023/04/21 00:16:33;;;;;;;5.13;3.40;;;;;;;10.27;70.84;94206.25;5130946;27;20201;-72
2023/04/21 00:19:01;;;;;;;10.15;3.72;;;;;;;10.34;70.87;94209.22;5144552;27;20204;-71
2023/04/21 00:21:28;;;;;;;6.20;3.40;;;;;;;10.28;70.93;94207.84;5139489;27;20205;-72
2023/04/21 00:23:54;;;;;;;7.05;3.63;;;;;;;10.28;70.77;94205.13;5137720;27;20212;-72
2023/04/21 00:26:21;;;;;;;5.35;3.40;;;;;;;10.25;70.86;94197.69;5142465;27;20213;-72
2023/04/21 00:28:49;;;;;;;3.03;2.00;;;;;;;10.31;70.30;94207.97;5143894;27;20200;-72
2023/04/21 00:31:16;;;;;;;3.75;2.90;;;;;;;10.32;70.45;94211.47;5140313;27;20220;-72
2023/04/21 00:33:43;;;;;;;4.63;3.17;;;;;;;10.22;71.27;94214.59;5132882;27;20208;-72
2023/04/21 00:36:10;;;;;;;4.68;3.13;;;;;;;10.09;71.45;94215.66;5142279;27;20283;-73
2023/04/21 00:38:37;;;;;;;7.68;3.20;;;;;;;10.03;71.20;94223.19;5130805;27;20219;-71
2023/04/21 00:41:04;;;;;;;5.55;3.63;;;;;;;10.05;71.57;94228.28;5139585;27;20287;-71
2023/04/21 00:43:30;;;;;;;7.82;3.63;;;;;;;10.01;71.64;94220.03;5137019;27;20676;-72
2023/04/21 00:45:59;;;;;;;4.90;3.10;;;;;;;10.01;71.25;94213.81;5141417;27;20236;-72
2023/04/21 00:48:25;;;;;;;4.88;3.22;;;;;;;9.94;71.58;94220.59;5130328;27;20201;-72
2023/04/21 00:50:52;;;;;;;5.40;3.47;;;;;;;9.97;71.02;94213.72;5139356;27;20228;-72
2023/04/21 00:53:20;;;;;;;5.25;3.80;;;;;;;9.90;71.24;94208.03;5137051;27;20212;-71
2023/04/21 00:55:47;;;;;;;5.60;3.88;;;;;;;9.82;71.32;94201.59;5140618;27;20197;-71
2023/04/21 00:58:14;;;;;;;6.25;3.45;;;;;;;9.82;71.69;94207.00;5143805;27;20215;-71
2023/04/21 01:00:41;;;;;;;5.32;3.30;;;;;;;9.86;71.25;94207.13;5129742;27;20272;-71
2023/04/21 01:03:10;;;;;;;5.07;3.55;;;;;;;9.82;71.28;94200.81;5132735;27;20265;-73
2023/04/21 01:05:36;;;;;;;7.40;3.60;;;;;;;9.71;71.41;94205.81;5140395;27;20203;-72
2023/04/21 01:08:03;;;;;;;11.88;3.95;;;;;;;9.62;72.29;94210.53;5144027;27;20208;-72
2023/04/21 01:10:30;;;;;;;5.32;2.78;;;;;;;9.52;72.76;94205.53;5140281;27;20225;-72
2023/04/21 01:12:57;;;;;;;8.18;3.28;;;;;;;9.56;72.37;94207.25;5132726;27;20239;-72
2023/04/21 01:15:26;;;;;;;9.15;3.63;;;;;;;9.58;72.83;94206.88;5129301;27;20208;-71
2023/04/21 01:17:53;;;;;;;4.75;3.15;;;;;;;9.60;72.75;94201.94;5143410;27;20201;-71
2023/04/21 01:20:21;;;;;;;7.05;3.78;;;;;;;9.57;72.96;94208.00;5129367;27;20197;-72
2023/04/21 01:22:50;;;;;;;7.25;3.83;;;;;;;9.52;72.65;94219.03;5143247;27;20201;-71
2023/04/21 01:25:18;;;;;;;4.85;3.80;;;;;;;9.42;73.34;94208.63;5142511;27;20429;-71
2023/04/21 01:27:45;;;;;;;10.43;4.07;;;;;;;9.39;73.32;94204.69;5135903;27;20207;-71
2023/04/21 01:30:12;;;;;;;5.85;3.65;;;;;;;9.31;74.21;94207.44;5147801;27;20201;-71
2023/04/21 01:32:39;;;;;;;7.00;3.45;;;;;;;9.46;73.79;94204.13;5129336;27;20212;-72
2023/04/21 01:35:07;;;;;;;5.40;3.22;;;;;;;9.43;73.69;94194.00;5129882;27;20197;-73
2023/04/21 01:37:34;;;;;;;7.03;3.28;;;;;;;9.51;73.27;94195.84;5136357;27;20204;-71
2023/04/21 01:40:04;;;;;;;6.60;3.90;;;;;;;9.48;73.55;94196.50;5136179;27;20660;-72
2023/04/21 01:42:32;;;;;;;5.32;3.38;;;;;;;9.43;73.62;94194.00;5128989;27;20293;-72
2023/04/21 01:45:00;;;;;;;8.57;3.58;;;;;;;9.49;73.49;94198.88;5142971;27;20228;-72
2023/04/21 01:47:27;;;;;;;5.50;3.90;;;;;;;9.52;73.35;94197.41;5137163;27;20682;-72
2023/04/21 01:49:54;;;;;;;8.52;4.03;;;;;;;9.56;72.86;94192.94;5134395;27;20197;-72
2023/04/21 01:52:20;;;;;;;5.85;3.60;;;;;;;9.50;72.98;94189.63;5128641;27;20305;-71
2023/04/21 01:54:47;;;;;;;6.57;3.88;;;;;;;9.49;73.38;94182.66;5142616;27;20296;-71
2023/04/21 01:57:16;;;;;;;6.40;3.33;;;;;;;9.41;73.38;94190.84;5137837;27;20279;-71
2023/04/21 01:59:43;;;;;;;6.28;3.90;;;;;;;9.31;74.15;94191.22;5135476;27;20209;-71
2023/04/21 02:02:10;;;;;;;7.78;3.90;;;;;;;9.21;74.33;94198.59;5140429;27;20296;-71
2023/04/21 02:04:37;;;;;;;5.95;3.55;;;;;;;9.16;74.83;94192.59;5142621;27;20196;-72
2023/04/21 02:07:03;;;;;;;9.70;4.07;;;;;;;9.16;74.73;94195.28;5128929;28;20798;-72
2023/04/21 02:09:30;;;;;;;7.82;3.92;;;;;;;9.16;74.66;94196.09;5131326;27;20683;-71
2023/04/21 02:11:57;;;;;;;8.18;3.53;;;;;;;9.16;74.48;94196.09;5139415;27;20276;-71
2023/04/21 02:14:26;;;;;;;8.95;4.75;;;;;;;9.21;74.52;94193.19;5129039;27;20200;-71
2023/04/21 02:16:54;;;;;;;5.63;3.95;;;;;;;9.21;74.36;94187.00;5139145;27;20200;-71
2023/04/21 02:19:21;;;;;;;4.35;2.90;;;;;;;9.23;74.19;94185.56;5131206;27;20258;-71
2023/04/21 02:21:48;;;;;;;7.07;4.05;;;;;;;9.15;74.73;94183.72;5128618;28;20201;-70
2023/04/21 02:24:15;;;;;;;7.35;3.85;;;;;;;9.12;75.12;94195.19;5142340;27;20205;-72
2023/04/21 02:26:42;;;;;;;5.43;2.92;;;;;;;9.14;74.74;94198.34;5140346;27;20200;-73
2023/04/21 02:29:08;;;;;;;6.03;3.53;;;;;;;9.34;74.15;94201.38;5135243;27;20248;-72
2023/04/21 02:31:37;;;;;;;7.18;4.10;;;;;;;9.37;74.23;94192.63;5137443;27;20224;-73
2023/04/21 02:34:03;;;;;;;5.75;3.85;;;;;;;9.53;73.93;94188.19;5133304;27;20204;-72
2023/04/21 02:36:30;;;;;;;5.47;2.78;;;;;;;9.52;73.92;94189.31;5136880;27;20201;-72
2023/04/21 02:38:57;;;;;;;7.93;4.78;;;;;;;9.39;74.54;94187.66;5142598;27;20197;-72
2023/04/21 02:41:24;;;;;;;6.38;4.00;;;;;;;9.37;75.13;94181.78;5141370;27;20419;-72
2023/04/21 02:43:51;;;;;;;6.22;3.65;;;;;;;9.52;74.39;94181.19;5130332;27;20209;-71
2023/04/21 02:46:18;;;;;;;6.50;3.42;;;;;;;9.63;73.98;94182.38;5128236;28;20311;-71
2023/04/21 02:48:46;;;;;;;7.15;4.55;;;;;;;9.71;73.94;94188.81;5142064;27;20205;-72
2023/04/21 02:51:13;;;;;;;7.72;4.68;;;;;;;9.66;73.76;94173.59;5140779;27;20310;-72
2023/04/21 02:53:40;;;;;;;7.20;3.80;;;;;;;9.82;73.59;94190.78;5135341;27;20291;-72
2023/04/21 02:56:07;;;;;;;9.70;4.50;;;;;;;9.92;73.35;94184.94;5136532;27;20284;-71
2023/04/21 02:58:35;;;;;;;9.85;4.40;;;;;;;10.05;72.93;94193.88;5142292;27;20239;-72
2023/04/21 03:01:02;;;;;;;9.25;4.15;;;;;;;10.08;72.95;94192.44;5141264;27;20280;-71
2023/04/21 03:03:29;;;;;;;7.57;3.65;;;;;;;10.23;72.32;94181.00;5135243;27;20200;-71
2023/04/21 03:05:58;;;;;;;5.78;3.35;;;;;;;10.36;71.89;94181.81;5136065;27;20205;-72
2023/04/21 03:08:25;;;;;;;6.25;3.95;;;;;;;10.38;72.01;94190.38;5135497;27;20639;-71
2023/04/21 03:10:52;;;;;;;9.20;4.10;;;;;;;10.38;71.94;94180.34;5134718;27;20658;-72
2023/04/21 03:13:19;;;;;;;3.80;3.00;;;;;;;10.41;71.32;94185.06;5111857;27;20193;-72
2023/04/21 03:15:46;;;;;;;7.72;4.30;;;;;;;10.41;71.55;94185.06;5133217;27;20559;-71
2023/04/21 03:18:13;;;;;;;6.07;3.95;;;;;;;10.40;71.52;94182.69;5144631;27;20201;-71
2023/04/21 03:20:40;;;;;;;8.77;5.22;;;;;;;10.42;71.33;94181.22;5145392;27;20198;-71
2023/04/21 03:23:08;;;;;;;7.43;3.90;;;;;;;10.40;71.30;94197.03;5140776;27;20207;-73
2023/04/21 03:25:36;;;;;;;8.13;4.20;;;;;;;10.38;71.29;94184.97;5138096;27;20587;-71
2023/04/21 03:28:02;;;;;;;4.53;3.45;;;;;;;10.33;71.43;94194.09;5144512;27;20235;-71
2023/04/21 03:30:29;;;;;;;10.45;3.97;;;;;;;10.35;71.23;94191.84;5145491;27;20204;-71
2023/04/21 03:32:57;;;;;;;4.57;3.55;;;;;;;10.40;71.03;94194.31;5139648;27;20251;-71
2023/04/21 03:35:24;;;;;;;11.45;5.57;;;;;;;10.42;71.40;94192.06;5136708;27;20201;-71
2023/04/21 03:37:51;;;;;;;5.22;2.92;;;;;;;10.43;70.76;94192.84;5140601;27;20200;-72
2023/04/21 03:40:19;;;;;;;7.50;4.47;;;;;;;10.41;70.98;94195.91;5138094;27;20901;-72
2023/04/21 03:42:46;;;;;;;7.53;3.85;;;;;;;10.30;71.35;94195.53;5142510;27;20205;-72
2023/04/21 03:45:13;;;;;;;9.52;4.32;;;;;;;10.30;71.39;94192.03;5144784;27;20224;-73
2023/04/21 03:47:40;;;;;;;8.60;4.55;;;;;;;10.33;71.15;94194.88;5131002;27;20204;-71
2023/04/21 03:50:16;;;;;;;3.70;2.83;;;;;;;10.35;70.93;94191.03;5133047;27;20197;-71
2023/04/21 03:52:43;;;;;;;6.60;4.38;;;;;;;10.41;70.86;94206.72;5140592;27;20789;-72
2023/04/21 03:55:10;;;;;;;6.47;4.32;;;;;;;10.36;71.04;94204.25;5145213;27;20197;-71
2023/04/21 03:57:40;;;;;;;6.45;3.90;;;;;;;10.35;70.93;94210.78;5142785;27;20204;-71
2023/04/21 04:00:09;;;;;;;7.53;4.22;;;;;;;10.34;70.97;94209.22;5138551;27;20204;-72
2023/04/21 04:02:36;;;;;;;6.43;3.70;;;;;;;10.38;70.58;94212.84;5138855;27;20227;-72
2023/04/21 04:05:04;;;;;;;8.43;4.25;;;;;;;10.61;70.30;94219.41;5136922;27;20200;-71
2023/04/21 04:07:31;;;;;;;7.07;3.72;;;;;;;10.74;69.80;94211.28;5138129;27;20609;-71
2023/04/21 04:09:58;;;;;;;6.93;4.30;;;;;;;11.11;68.73;94223.66;5144058;27;20684;-72
2023/04/21 04:12:25;;;;;;;6.57;4.22;;;;;;;11.28;68.01;94212.59;5143455;27;20246;-71
2023/04/21 04:14:53;;;;;;;8.45;4.68;;;;;;;11.40;67.13;94217.97;5138741;27;20192;-73
2023/04/21 04:17:21;;;;;;;9.75;4.97;;;;;;;11.38;67.33;94222.16;5136494;27;20201;-74
2023/04/21 04:19:48;;;;;;;5.53;4.32;;;;;;;11.57;66.46;94213.44;5130395;27;20711;-73
2023/04/21 04:22:14;;;;;;;8.15;4.25;;;;;;;11.85;65.86;94218.91;5144491;27;20529;-73
2023/04/21 04:24:43;;;;;;;11.85;3.92;;;;;;;12.40;64.03;94223.50;5137386;27;20203;-73
2023/04/21 04:27:12;;;;;;;9.07;5.22;;;;;;;12.27;64.67;94219.28;5137738;27;20197;-72
2023/04/21 04:29:40;;;;;;;11.07;6.90;;;;;;;11.74;65.46;94234.84;5142516;27;20811;-72
2023/04/21 04:32:09;;;;;;;9.35;6.50;;;;;;;11.62;66.27;94235.66;5112070;27;20288;-76
2023/04/21 04:34:37;;;;;;;21.42;6.05;;;;;;;11.34;66.67;94243.75;5139485;27;20303;-75
2023/04/21 04:37:05;;;;;;;11.40;5.25;;;;;;;11.35;67.65;94237.19;5118724;27;20258;-74
2023/04/21 04:39:32;;;;;;;8.88;5.10;;;;;;;11.34;67.93;94249.16;5140993;27;20690;-73
2023/04/21 04:42:00;;;;;;;6.90;3.97;;;;;;;11.24;67.21;94214.38;5129958;27;20220;-73
2023/04/21 04:44:27;;;;;;;11.68;5.10;;;;;;;11.44;67.23;94241.72;5140108;27;20200;-74
2023/04/21 04:46:55;;;;;;;6.43;3.75;;;;;;;11.63;67.05;94250.00;5136865;27;20203;-74
2023/04/21 04:49:23;;;;;;;9.82;4.90;;;;;;;11.53;67.53;94250.50;5140343;27;20204;-74
2023/04/21 04:51:50;;;;;;;8.38;5.13;;;;;;;11.65;67.49;94245.84;5144194;27;20235;-73
2023/04/21 04:54:17;;;;;;;9.65;5.00;;;;;;;11.61;67.40;94258.53;5141154;27;20253;-73
2023/04/21 04:56:44;;;;;;;8.43;5.00;;;;;;;11.69;67.80;94254.88;5136969;27;20196;-74
2023/04/21 04:59:11;;;;;;;7.72;4.95;;;;;;;11.65;67.04;94243.13;5139798;27;20224;-74
2023/04/21 05:01:39;;;;;;;7.35;4.95;;;;;;;11.72;66.93;94246.06;5143500;27;20205;-73
2023/04/21 05:04:06;;;;;;;8.98;6.43;;;;;;;11.77;66.80;94260.53;5130352;27;20549;-73
2023/04/21 05:06:34;;;;;;;8.63;4.82;;;;;;;11.74;67.20;94251.13;5134095;27;20207;-74
2023/04/21 05:09:01;;;;;;;6.03;3.10;;;;;;;11.64;66.93;94248.88;5139101;27;20697;-76
2023/04/21 05:11:28;;;;;;;6.60;3.33;;;;;;;11.52;67.06;94232.63;5143125;27;20241;-74
2023/04/21 05:13:55;;;;;;;7.57;4.22;;;;;;;11.95;66.40;94251.75;5143086;27;20635;-74
2023/04/21 05:16:21;;;;;;;8.68;6.68;;;;;;;11.96;66.56;94253.34;5130206;27;20193;-73
2023/04/21 05:18:49;;;;;;;11.90;5.18;;;;;;;12.07;66.33;94246.28;5143314;27;20230;-73
2023/04/21 05:21:23;;;;;;;6.63;4.22;;;;;;;12.18;64.93;94235.72;5142980;27;20201;-74
2023/04/21 05:23:51;;;;;;;12.60;5.45;;;;;;;12.27;65.56;94246.44;5143271;27;20658;-74
2023/04/21 05:26:18;;;;;;;4.22;3.13;;;;;;;12.19;65.51;94239.22;5129657;27;20207;-74
2023/04/21 05:28:45;;;;;;;7.47;4.72;;;;;;;12.29;65.94;94255.81;5130372;27;20647;-73
2023/04/21 05:31:12;;;;;;;8.65;5.20;;;;;;;12.09;66.24;94254.88;5140372;27;20954;-73
2023/04/21 05:33:38;;;;;;;10.35;4.38;;;;;;;12.32;66.31;94240.72;5134300;27;20746;-73
2023/04/21 05:36:07;;;;;;;12.35;5.55;;;;;;;12.50;65.37;94236.56;5129266;27;20215;-73
2023/04/21 05:38:37;;;;;;;5.70;3.60;;;;;;;12.36;65.28;94217.19;5132399;27;20276;-73
2023/04/21 05:41:05;;;;;;;10.18;6.50;;;;;;;12.67;65.22;94243.59;5140748;27;20281;-72
2023/04/21 05:43:33;;;;;;;7.25;4.53;;;;;;;12.97;64.73;94266.50;5140053;27;20204;-73
2023/04/21 05:46:00;;;;;;;11.35;5.03;;;;;;;12.81;64.45;94244.75;5137938;27;20762;-73
2023/04/21 05:48:27;;;;;;;3.28;2.45;;;;;;;12.23;65.68;94240.09;5134568;27;21009;-74
2023/04/21 05:50:57;;;;;;;7.13;4.18;;;;;;;12.51;66.14;94246.28;5136459;27;20200;-73
2023/04/21 05:53:24;;;;;;;8.52;5.13;;;;;;;12.97;65.46;94252.09;5136738;27;20601;-75
2023/04/21 05:55:51;;;;;;;6.47;3.58;;;;;;;13.11;64.29;94241.56;5136340;27;20208;-73
2023/04/21 05:58:20;;;;;;;9.73;3.92;;;;;;;13.48;63.12;94251.00;5139783;27;20184;-73
2023/04/21 06:00:46;;;;;;;10.20;4.75;;;;;;;14.23;61.08;94247.09;5128824;27;20208;-73
2023/04/21 06:03:13;;;;;;;6.63;4.30;;;;;;;15.07;58.72;94241.63;5142870;27;20205;-73
2023/04/21 06:05:40;;;;;;;12.25;4.78;;;;;;;16.20;55.48;94226.09;5141043;27;20742;-73
2023/04/21 06:08:08;;;;;;;9.88;4.50;;;;;;;17.19;53.21;94209.09;5135860;27;20205;-73
2023/04/21 06:10:35;;;;;;;7.45;4.15;;;;;;;17.38;52.16;94206.09;5137420;27;20208;-73
2023/04/21 06:13:02;;;;;;;12.63;4.60;;;;;;;17.01;52.47;94226.16;5142347;27;20637;-74
2023/04/21 06:15:30;;;;;;;7.20;3.30;;;;;;;17.57;51.11;94218.75;5141261;27;20252;-73
2023/04/21 06:17:57;;;;;;;5.97;4.10;;;;;;;16.80;53.16;94217.78;5135949;27;20212;-73
2023/04/21 06:20:27;;;;;;;9.50;5.80;;;;;;;17.50;52.16;94214.00;5136964;27;20799;-73
2023/04/21 06:22:54;;;;;;;9.23;6.28;;;;;;;18.80;48.86;94204.81;5128850;28;20205;-73
2023/04/21 06:25:21;;;;;;;9.90;6.43;;;;;;;18.64;48.41;94214.56;5134425;27;20568;-74
2023/04/21 06:27:48;;;;;;;7.13;5.45;;;;;;;16.83;52.12;94232.63;5131237;27;20214;-74
2023/04/21 06:30:14;;;;;;;10.50;6.30;;;;;;;17.30;52.27;94218.97;5142249;27;20200;-74
2023/04/21 06:32:44;;;;;;;10.95;6.43;;;;;;;17.79;50.60;94236.91;5135435;27;20224;-73
2023/04/21 06:35:13;;;;;;;6.97;5.93;;;;;;;19.27;47.43;94202.84;5149472;27;20265;-73
2023/04/21 06:37:40;;;;;;;9.70;6.47;;;;;;;18.70;47.61;94196.56;5128630;28;20728;-74
2023/04/21 06:40:08;;;;;;;10.60;6.00;;;;;;;18.87;48.18;94220.47;5129488;27;20233;-73
2023/04/21 06:42:35;;;;;;;8.30;6.07;;;;;;;17.30;51.23;94212.69;5140366;27;20567;-73
2023/04/21 06:45:02;;;;;;;6.80;6.05;;;;;;;17.53;50.95;94210.50;5129468;27;20259;-73
2023/04/21 06:47:29;;;;;;;8.25;5.80;;;;;;;18.44;48.74;94212.16;5141325;27;20706;-77
2023/04/21 06:49:57;;;;;;;8.77;6.30;;;;;;;18.13;49.71;94223.78;5146398;27;20787;-72
2023/04/21 06:52:24;;;;;;;8.63;6.25;;;;;;;16.55;52.65;94208.50;5131943;27;20233;-73
2023/04/21 06:54:51;;;;;;;10.95;5.80;;;;;;;16.78;52.84;94222.84;5133892;27;20236;-74
2023/04/21 06:57:17;;;;;;;9.82;6.22;;;;;;;16.76;52.28;94213.41;5144515;27;20200;-74
2023/04/21 06:59:44;;;;;;;7.88;5.88;;;;;;;16.18;53.81;94231.13;5146030;27;20248;-74
2023/04/21 07:02:11;;;;;;;8.10;6.07;;;;;;;17.04;52.36;94211.72;5132330;27;20219;-73
2023/04/21 07:04:38;;;;;;;9.52;6.28;;;;;;;17.69;49.83;94178.16;5133705;27;20212;-73
2023/04/21 07:07:06;;;;;;;8.60;6.03;;;;;;;18.42;49.56;94206.25;5144587;27;20215;-73
2023/04/21 07:09:33;;;;;;;7.40;5.90;;;;;;;18.69;48.51;94200.47;5145544;27;20203;-73
2023/04/21 07:12:01;;;;;;;9.10;5.55;;;;;;;18.08;49.89;94204.97;5140946;27;20279;-73
2023/04/21 07:14:28;;;;;;;8.82;5.47;;;;;;;18.80;49.13;94215.00;5139025;27;20585;-74
2023/04/21 07:16:56;;;;;;;9.88;5.95;;;;;;;17.28;51.10;94206.81;5141280;27;20200;-74
2023/04/21 07:19:22;;;;;;;9.75;6.10;;;;;;;17.62;52.16;94221.94;5131976;27;20231;-74
2023/04/21 07:21:49;;;;;;;8.80;5.28;;;;;;;17.31;51.66;94214.28;5143214;27;20196;-73
2023/04/21 07:24:17;;;;;;;7.53;5.20;;;;;;;18.13;50.05;94198.31;5139116;27;20196;-73
2023/04/21 07:26:44;;;;;;;8.80;5.57;;;;;;;18.14;49.49;94194.41;5140808;27;20340;-74
2023/04/21 07:29:11;;;;;;;7.57;5.22;;;;;;;17.27;51.30;94202.50;5146481;27;20212;-75
2023/04/21 07:31:38;;;;;;;8.73;4.57;;;;;;;17.53;50.58;94196.81;5140234;27;20319;-75
2023/04/21 07:34:05;;;;;;;6.85;5.40;;;;;;;18.22;49.77;94206.97;5136848;27;20247;-73
2023/04/21 07:36:32;;;;;;;8.40;5.50;;;;;;;17.62;50.56;94210.97;5139720;27;20201;-82
2023/04/21 07:38:58;;;;;;;7.40;5.30;;;;;;;17.92;51.02;94191.56;5137517;27;20253;-74
2023/04/21 07:41:28;;;;;;;8.48;5.60;;;;;;;17.49;51.58;94206.19;5140164;27;20201;-75
2023/04/21 07:43:55;;;;;;;9.68;6.03;;;;;;;17.25;52.37;94202.09;5145383;27;20221;-73
2023/04/21 07:46:28;;;;;;;5.78;4.35;;;;;;;16.38;54.83;94214.59;5144557;27;20219;-75
2023/04/21 07:48:55;;;;;;;6.53;4.90;;;;;;;16.71;53.51;94225.47;5138984;27;20194;-73
2023/04/21 07:51:22;;;;;;;6.57;5.00;;;;;;;16.61;53.63;94209.72;5137973;27;20314;-73
2023/04/21 07:53:49;;;;;;;7.57;4.97;;;;;;;16.55;53.00;94216.69;5131422;27;20232;-76
2023/04/21 07:56:22;;;;;;;6.95;4.70;;;;;;;15.71;55.74;94225.47;5145121;27;20200;-74
2023/04/21 07:58:51;;;;;;;12.40;5.72;;;;;;;16.08;55.72;94217.34;5130978;27;20197;-77
2023/04/21 08:01:19;;;;;;;8.60;5.60;;;;;;;15.92;55.96;94225.75;5130809;27;20242;-74
2023/04/21 08:03:46;;;;;;;8.50;5.22;;;;;;;16.79;52.52;94208.00;5140187;27;20204;-73
2023/04/21 08:06:13;;;;;;;7.80;5.00;;;;;;;17.57;50.63;94203.09;5138391;27;20201;-73
2023/04/21 08:08:39;;;;;;;6.90;5.18;;;;;;;17.77;49.74;94194.66;5141669;27;20204;-74
2023/04/21 08:11:06;;;;;;;8.68;5.32;;;;;;;17.07;51.28;94217.63;5144946;27;20236;-73
2023/04/21 08:13:33;;;;;;;8.38;6.30;;;;;;;17.52;51.24;94217.16;5130855;27;20733;-74
2023/04/21 08:16:01;;;;;;;7.57;4.97;;;;;;;17.39;51.21;94213.94;5134599;27;20214;-74
2023/04/21 08:18:28;;;;;;;7.32;5.40;;;;;;;17.55;50.75;94199.97;5140872;27;20216;-74
2023/04/21 08:20:56;;;;;;;16.95;5.22;;;;;;;17.62;51.20;94200.03;5130976;27;20208;-73
2023/04/21 08:23:23;;;;;;;9.35;5.38;;;;;;;17.60;51.10;94193.34;5141774;27;20196;-73
2023/04/21 08:25:50;;;;;;;10.15;5.28;;;;;;;18.04;49.82;94204.19;5137689;27;20257;-74
2023/04/21 08:28:17;;;;;;;7.65;4.82;;;;;;;17.61;50.91;94198.44;5140782;27;20213;-78
2023/04/21 08:30:43;;;;;;;6.90;4.80;;;;;;;17.77;50.88;94196.19;5144363;27;20204;-73
2023/04/21 08:33:12;;;;;;;8.07;5.13;;;;;;;17.56;50.98;94193.31;5141812;27;20231;-75
2023/04/21 08:35:40;;;;;;;9.38;5.57;;;;;;;17.85;50.33;94201.72;5137004;27;20598;-75
2023/04/21 08:38:08;;;;;;;7.53;5.05;;;;;;;18.64;49.69;94193.41;5140282;27;20729;-74
2023/04/21 08:40:36;;;;;;;6.47;4.38;;;;;;;18.79;48.51;94199.69;5143978;27;20196;-75
2023/04/21 08:43:05;;;;;;;7.85;4.80;;;;;;;18.24;49.50;94204.63;5142302;27;20351;-74
2023/04/21 08:45:32;;;;;;;10.40;4.97;;;;;;;17.97;49.75;94188.47;5136965;27;20231;-74
2023/04/21 08:48:00;;;;;;;8.45;5.18;;;;;;;17.96;49.69;94202.56;5138804;27;20257;-75
2023/04/21 08:50:30;;;;;;;12.70;5.30;;;;;;;17.01;52.17;94187.84;5144462;27;20193;-74
2023/04/21 08:52:58;;;;;;;6.68;4.82;;;;;;;17.56;51.72;94189.78;5130306;27;20232;-75
2023/04/21 08:55:27;;;;;;;8.75;4.82;;;;;;;16.90;52.23;94197.94;5137051;27;20505;-76
2023/04/21 08:57:54;;;;;;;8.93;5.30;;;;;;;16.46;52.98;94199.81;5150497;27;20633;-74
2023/04/21 09:00:21;;;;;;;5.85;4.90;;;;;;;16.84;52.65;94199.44;5137565;27;20200;-75
2023/04/21 09:02:56;;;;;;;8.07;4.95;;;;;;;16.87;52.80;94200.63;5136711;27;20193;-74
2023/04/21 09:05:24;;;;;;;7.10;5.35;;;;;;;17.05;52.83;94188.66;5150878;27;20288;-75
2023/04/21 09:08:06;;;;;;;7.82;4.80;;;;;;;17.11;52.23;94169.94;5134666;27;20211;-73
2023/04/21 09:10:33;;;;;;;6.38;4.38;;;;;;;17.29;52.00;94175.53;5129276;27;20223;-77
2023/04/21 09:13:06;;;;;;;9.40;4.43;;;;;;;17.15;51.46;94169.97;5135132;27;20416;-74
2023/04/21 09:15:39;;;;;;;6.88;4.43;;;;;;;17.87;50.13;94175.50;5137249;27;20712;-73
2023/04/21 09:18:11;;;;;;;5.90;4.70;;;;;;;18.46;48.79;94165.13;5130367;27;20227;-73
2023/04/21 09:20:38;;;;;;;6.05;3.90;;;;;;;18.56;48.18;94171.81;5143583;27;20196;-76
2023/04/21 09:23:07;;;;;;;5.63;4.18;;;;;;;18.87;48.05;94179.31;5137810;27;20679;-74
2023/04/21 09:25:34;;;;;;;8.30;4.25;;;;;;;18.66;47.33;94168.31;5135435;27;20246;-77
2023/04/21 09:28:01;;;;;;;6.75;4.50;;;;;;;18.08;49.32;94177.53;5140997;27;20208;-74
2023/04/21 09:30:28;;;;;;;6.05;3.85;;;;;;;17.28;50.24;94168.50;5143365;27;20227;-76
2023/04/21 09:32:59;;;;;;;9.35;4.60;;;;;;;18.22;48.93;94147.44;5138381;27;20710;-72
2023/04/21 09:35:28;;;;;;;7.68;3.67;;;;;;;18.91;47.26;94152.66;5133865;27;20295;-75
2023/04/21 09:37:55;;;;;;;9.10;4.20;;;;;;;19.02;46.75;94145.19;5129267;27;20201;-72
2023/04/21 09:40:23;;;;;;;8.27;4.05;;;;;;;18.82;46.54;94149.53;5143728;27;20201;-74
2023/04/21 09:42:50;;;;;;;6.35;4.13;;;;;;;18.24;47.15;94136.88;5139504;27;20228;-74
2023/04/21 09:45:17;;;;;;;6.55;4.22;;;;;;;18.74;46.57;94153.44;5133285;27;20288;-73
2023/04/21 09:47:50;;;;;;;5.05;3.97;;;;;;;19.27;45.62;94152.66;5129433;27;20284;-73
2023/04/21 09:50:17;;;;;;;4.70;3.65;;;;;;;18.99;45.24;94142.47;5143345;27;20196;-74
2023/04/21 09:52:44;;;;;;;6.78;3.97;;;;;;;19.20;47.53;94147.16;5129005;27;20735;-74
2023/04/21 09:55:12;;;;;;;6.25;4.15;;;;;;;19.11;46.33;94112.66;5143116;27;20264;-74
2023/04/21 09:57:43;;;;;;;7.93;4.95;;;;;;;19.91;45.28;94149.78;5141049;27;20200;-74
2023/04/21 10:00:12;;;;;;;11.25;4.55;;;;;;;18.98;45.94;94118.94;5136171;27;20189;-73
2023/04/21 10:02:44;;;;;;;5.05;3.60;;;;;;;19.06;44.61;94136.97;5137357;27;20196;-75
2023/04/21 10:05:11;;;;;;;6.07;3.90;;;;;;;18.34;46.46;94147.06;5143282;27;20240;-73
2023/04/21 10:07:38;;;;;;;4.60;4.00;;;;;;;18.42;46.20;94153.38;5142871;27;20207;-73
2023/04/21 10:10:13;;;;;;;4.82;3.63;;;;;;;18.44;44.57;94148.28;5136624;27;20284;-73
2023/04/21 10:12:41;;;;;;;4.97;3.80;;;;;;;18.03;45.87;94140.34;5133968;27;20224;-74
2023/04/21 10:15:29;;;;;;;5.90;4.45;;;;;;;18.59;45.83;94135.38;5129179;28;20571;-73
2023/04/21 10:18:11;;;;;;;5.30;3.80;;;;;;;18.64;44.75;94126.78;5142993;27;20800;-75
2023/04/21 10:20:51;;;;;;;10.70;4.13;;;;;;;18.23;45.21;94112.56;5129881;27;20200;-75
2023/04/21 10:23:26;;;;;;;4.63;3.63;;;;;;;17.62;46.17;94115.09;5142555;27;20197;-76
2023/04/21 10:25:54;;;;;;;6.32;3.33;;;;;;;17.92;45.86;94138.72;5147264;27;20207;-73
2023/04/21 10:28:39;;;;;;;24.48;4.72;;;;;;;17.11;50.39;94150.78;5145298;27;20283;-79
2023/04/21 10:31:31;;;;;;;6.80;3.58;;;;;;;16.75;52.59;94141.53;5140559;27;20275;-76
2023/04/21 10:34:21;;;;;;;8.13;4.50;;;;;;;16.40;52.17;94149.38;5119055;27;20220;-73
2023/04/21 10:37:15;;;;;;;5.18;4.40;;;;;;;16.38;52.84;94148.97;5152110;27;20544;-76
2023/04/21 10:39:59;;;;;;;7.45;4.68;;;;;;;16.18;52.38;94140.94;5133205;27;20647;-83
2023/04/21 10:42:36;;;;;;;5.82;3.67;;;;;;;16.27;51.26;94127.75;5137350;27;20189;-75
2023/04/21 10:45:10;;;;;;;5.53;4.05;;;;;;;16.09;51.60;94137.75;5145441;27;20599;-75
2023/04/21 10:47:41;;;;;;;6.13;4.40;;;;;;;16.62;51.77;94138.28;5132776;27;20287;-73
2023/04/21 10:50:25;;;;;;;9.07;4.22;;;;;;;17.41;49.54;94145.09;5133941;27;20193;-74
2023/04/21 10:52:58;;;;;;;6.57;4.03;;;;;;;17.39;49.45;94144.69;5137552;27;20196;-74
2023/04/21 10:55:30;;;;;;;6.10;4.22;;;;;;;17.47;48.67;94118.94;5138615;27;20562;-74
2023/04/21 10:57:58;;;;;;;7.85;4.60;;;;;;;17.38;48.49;94140.38;5135126;27;20207;-77
2023/04/21 11:00:26;;;;;;;8.93;4.70;;;;;;;17.21;50.04;94152.03;5149521;27;20228;-74
2023/04/21 11:02:54;;;;;;;5.78;3.67;;;;;;;16.86;49.42;94141.59;5144614;27;20227;-76
2023/04/21 11:05:28;;;;;;;6.47;4.13;;;;;;;17.15;49.42;94128.91;5135707;27;20200;-75
2023/04/21 11:08:03;;;;;;;5.30;3.75;;;;;;;17.46;48.59;94141.22;5132796;27;20215;-72
2023/04/21 11:10:41;;;;;;;7.20;4.32;;;;;;;17.84;48.07;94132.44;5140450;27;20233;-73
2023/04/21 11:13:08;;;;;;;5.03;3.70;;;;;;;17.90;48.42;94132.84;5134371;27;20197;-73
2023/04/21 11:15:36;;;;;;;9.05;4.40;;;;;;;17.83;48.50;94127.34;5131778;27;20227;-72
2023/04/21 11:18:03;;;;;;;8.70;4.03;;;;;;;18.24;47.29;94120.41;5146445;27;20200;-72
2023/04/21 11:20:30;;;;;;;5.82;3.95;;;;;;;18.43;45.87;94128.31;5146613;27;20196;-74
2023/04/21 11:22:57;;;;;;;4.88;3.70;;;;;;;19.00;44.16;94117.34;5132408;27;20702;-73
2023/04/21 11:25:24;;;;;;;5.57;3.30;;;;;;;18.44;43.90;94127.13;5146342;27;20253;-73
2023/04/21 11:27:55;;;;;;;8.35;3.63;;;;;;;18.21;46.11;94118.44;5139616;27;20685;-74
2023/04/21 11:30:30;;;;;;;4.35;3.22;;;;;;;18.07;46.54;94132.13;5147107;27;20300;-73
2023/04/21 11:32:59;;;;;;;4.85;3.83;;;;;;;17.91;46.98;94123.44;5131991;27;20192;-73
2023/04/21 11:35:26;;;;;;;5.53;4.00;;;;;;;18.03;47.81;94109.41;5134990;27;20576;-72
2023/04/21 11:37:55;;;;;;;4.28;3.55;;;;;;;17.97;46.48;94119.16;5142502;27;20204;-74
2023/04/21 11:40:21;;;;;;;5.15;3.22;;;;;;;17.81;45.45;94124.19;5135256;27;20196;-75